createdAt,value
2022-11-19T00:02:03.952Z,99701.96
2022-11-19T00:04:32.089Z,99704.41
2022-11-19T00:06:59.821Z,99706.70
2022-11-19T00:09:27.698Z,99706.74
2022-11-19T00:12:14.405Z,99702.83
2022-11-19T00:14:42.602Z,99712.30
2022-11-19T00:17:10.317Z,99712.65
2022-11-19T00:19:38.104Z,99718.94
2022-11-19T00:22:06.240Z,99721.64
2022-11-19T00:24:33.965Z,99719.04
2022-11-19T00:27:01.640Z,99719.14
2022-11-19T00:29:29.624Z,99720.28
2022-11-19T00:31:57.382Z,99726.04
2022-11-19T00:34:25.123Z,99728.39
2022-11-19T00:36:53.232Z,99734.36
2022-11-19T00:39:22.199Z,99738.42
2022-11-19T00:41:50.290Z,99738.40
2022-11-19T00:44:18.175Z,99740.73
2022-11-19T00:46:46.732Z,99738.10
2022-11-19T00:49:16.087Z,99739.21
2022-11-19T00:51:45.514Z,99740.20
2022-11-19T00:54:14.540Z,99738.27
2022-11-19T00:56:43.311Z,99740.11
2022-11-19T00:59:11.142Z,99736.63
2022-11-19T01:01:40.040Z,99731.94
2022-11-19T01:04:08.213Z,99734.98
2022-11-19T01:06:36.240Z,99738.67
2022-11-19T01:09:05.537Z,99742.23
2022-11-19T01:11:35.213Z,99741.99
2022-11-19T01:14:04.918Z,99738.46
2022-11-19T01:16:41.798Z,99731.54
2022-11-19T01:19:12.325Z,99730.79
2022-11-19T01:21:40.096Z,99731.09
2022-11-19T01:24:09.339Z,99730.90
2022-11-19T01:26:41.658Z,99730.56
2022-11-19T01:29:12.253Z,99732.97
2022-11-19T01:31:40.261Z,99735.88
2022-11-19T01:34:07.913Z,99738.61
2022-11-19T01:36:35.860Z,99737.54
2022-11-19T01:39:03.717Z,99742.13
2022-11-19T01:41:32.850Z,99745.04
2022-11-19T01:44:02.419Z,99743.10
2022-11-19T01:46:32.670Z,99745.17
2022-11-19T01:49:11.339Z,99746.55
2022-11-19T01:51:46.171Z,99751.16
2022-11-19T01:54:47.484Z,99750.66
2022-11-19T01:57:18.054Z,99752.69
2022-11-19T01:59:49.893Z,99753.66
2022-11-19T02:02:22.938Z,99756.37
2022-11-19T02:04:57.152Z,99762.02
2022-11-19T02:07:29.515Z,99762.84
2022-11-19T02:10:00.249Z,99763.49
2022-11-19T02:12:48.884Z,99766.73
2022-11-19T02:15:42.719Z,99774.85
2022-11-19T02:18:23.444Z,99779.72
2022-11-19T02:21:12.656Z,99781.81
2022-11-19T02:24:16.685Z,99779.98
2022-11-19T02:27:00.534Z,99780.03
2022-11-19T02:29:32.330Z,99782.48
2022-11-19T02:32:09.940Z,99780.23
2022-11-19T02:34:53.437Z,99784.70
2022-11-19T02:37:41.920Z,99784.16
2022-11-19T02:40:15.107Z,99786.70
2022-11-19T02:42:55.150Z,99787.77
2022-11-19T02:45:31.478Z,99788.85
2022-11-19T02:48:06.447Z,99789.40
2022-11-19T02:50:43.697Z,99791.02
2022-11-19T02:53:11.646Z,99795.87
2022-11-19T02:55:40.529Z,99794.70
2022-11-19T02:58:37.138Z,99799.16
2022-11-19T03:01:26.667Z,99799.67
2022-11-19T03:04:13.576Z,99802.71
2022-11-19T03:06:41.670Z,99800.27
2022-11-19T03:09:09.600Z,99802.31
2022-11-19T03:11:37.602Z,99800.55
2022-11-19T03:15:08.394Z,99801.09
2022-11-19T03:17:52.618Z,99804.33
2022-11-19T03:20:37.754Z,99809.27
2022-11-19T03:23:18.903Z,99811.30
2022-11-19T03:25:58.396Z,99807.45
2022-11-19T03:28:34.817Z,99811.56
2022-11-19T03:31:04.028Z,99812.77
2022-11-19T03:33:45.157Z,99812.25
2022-11-19T03:36:21.502Z,99816.90
2022-11-19T03:38:55.760Z,99818.42
2022-11-19T03:41:25.726Z,99821.16
2022-11-19T03:43:57.613Z,99823.38
2022-11-19T03:46:27.616Z,99822.66
2022-11-19T03:48:57.388Z,99824.20
2022-11-19T03:51:51.821Z,99824.86
2022-11-19T03:54:20.120Z,99825.19
2022-11-19T03:56:50.097Z,99822.56
2022-11-19T03:59:18.403Z,99834.27
2022-11-19T04:01:50.574Z,99832.90
2022-11-19T04:04:37.628Z,99833.27
2022-11-19T04:07:14.319Z,99835.86
2022-11-19T04:09:43.092Z,99841.74
2022-11-19T04:12:19.509Z,99840.61
2022-11-19T04:14:47.808Z,99835.16
2022-11-19T04:17:16.136Z,99839.73
2022-11-19T04:19:44.129Z,99838.78
2022-11-19T04:22:12.123Z,99839.73
2022-11-19T04:24:40.196Z,99842.52
2022-11-19T04:27:07.947Z,99846.23
2022-11-19T04:29:35.708Z,99843.39
2022-11-19T04:32:03.753Z,99847.79
2022-11-19T04:34:31.485Z,99854.25
2022-11-19T04:36:59.362Z,99858.95
2022-11-19T04:39:27.338Z,99860.39
2022-11-19T04:41:55.034Z,99866.14
2022-11-19T04:44:22.718Z,99868.58
2022-11-19T04:46:50.642Z,99872.90
2022-11-19T04:49:18.649Z,99881.20
2022-11-19T04:51:46.571Z,99879.58
2022-11-19T04:54:14.538Z,99878.12
2022-11-19T04:56:42.257Z,99876.31
2022-11-19T04:59:10.338Z,99873.96
2022-11-19T05:01:38.330Z,99875.39
2022-11-19T05:04:06.233Z,99872.88
2022-11-19T05:06:34.419Z,99872.08
2022-11-19T05:09:02.389Z,99869.03
2022-11-19T05:11:30.057Z,99868.40
2022-11-19T05:13:58.054Z,99873.94
2022-11-19T05:16:25.912Z,99880.15
2022-11-19T05:18:53.613Z,99882.56
2022-11-19T05:21:21.772Z,99888.42
2022-11-19T05:23:49.709Z,99887.94
2022-11-19T05:26:17.374Z,99885.07
2022-11-19T05:28:46.334Z,99883.89
2022-11-19T05:31:14.269Z,99882.89
2022-11-19T05:33:41.997Z,99889.08
2022-11-19T05:36:09.972Z,99889.28
2022-11-19T05:38:38.448Z,99894.62
2022-11-19T05:41:06.170Z,99900.48
2022-11-19T05:43:34.165Z,99900.33
2022-11-19T05:46:03.661Z,99901.38
2022-11-19T05:48:31.439Z,99903.27
2022-11-19T05:50:59.293Z,99902.94
2022-11-19T05:53:27.628Z,99903.30
2022-11-19T05:55:55.275Z,99908.95
2022-11-19T05:58:23.291Z,99917.70
2022-11-19T06:00:56.045Z,99927.83
2022-11-19T06:03:23.843Z,99936.06
2022-11-19T06:05:52.353Z,99940.19
2022-11-19T06:08:20.299Z,99940.02
2022-11-19T06:10:48.139Z,99944.49
2022-11-19T06:13:16.035Z,99949.29
2022-11-19T06:15:44.036Z,99950.49
2022-11-19T06:18:12.310Z,99955.63
2022-11-19T06:20:40.035Z,99951.87
2022-11-19T06:23:08.143Z,99954.95
2022-11-19T06:25:36.986Z,99955.31
2022-11-19T06:28:05.204Z,99958.38
2022-11-19T06:30:33.060Z,99956.16
2022-11-19T06:33:01.021Z,99956.16
2022-11-19T06:35:28.750Z,99952.58
2022-11-19T06:37:56.497Z,99953.08
2022-11-19T06:40:24.401Z,99955.30
2022-11-19T06:42:52.217Z,99957.36
2022-11-19T06:45:20.361Z,99960.79
2022-11-19T06:47:49.421Z,99958.91
2022-11-19T06:50:18.243Z,99966.61
2022-11-19T06:52:46.286Z,99972.27
2022-11-19T06:55:14.392Z,99976.73
2022-11-19T06:57:42.285Z,99976.38
2022-11-19T07:00:11.526Z,99971.41
2022-11-19T07:02:39.525Z,99968.31
2022-11-19T07:05:08.094Z,99973.46
2022-11-19T07:07:36.111Z,99974.66
2022-11-19T07:10:04.217Z,99976.36
2022-11-19T07:12:32.157Z,99974.47
2022-11-19T07:15:04.209Z,99979.77
2022-11-19T07:17:33.305Z,99986.27
2022-11-19T07:20:01.585Z,99989.52
2022-11-19T07:22:29.284Z,99989.69
2022-11-19T07:24:57.737Z,99990.54
2022-11-19T07:27:25.778Z,99984.88
2022-11-19T07:29:53.477Z,99984.70
2022-11-19T07:32:21.331Z,99987.78
2022-11-19T07:34:49.265Z,99988.63
2022-11-19T07:37:16.938Z,99987.92
2022-11-19T07:39:47.067Z,99986.54
2022-11-19T07:42:33.460Z,99984.79
2022-11-19T07:45:03.807Z,99987.31
2022-11-19T07:47:33.977Z,99983.49
2022-11-19T07:50:02.494Z,99986.21
2022-11-19T07:52:31.055Z,99988.94
2022-11-19T07:54:59.264Z,99983.59
2022-11-19T07:57:30.485Z,99987.14
2022-11-19T07:59:58.561Z,99987.80
2022-11-19T08:02:26.546Z,99988.80
2022-11-19T08:04:54.262Z,99987.73
2022-11-19T08:07:22.555Z,99986.98
2022-11-19T08:09:50.666Z,99984.67
2022-11-19T08:12:18.424Z,99983.57
2022-11-19T08:14:47.208Z,99986.09
2022-11-19T08:17:34.024Z,99986.90
2022-11-19T08:20:02.339Z,99985.84
2022-11-19T08:22:30.412Z,99983.23
2022-11-19T08:24:58.134Z,99983.23
2022-11-19T08:27:26.220Z,99981.30
2022-11-19T08:29:54.359Z,99978.85
2022-11-19T08:32:22.116Z,99980.88
2022-11-19T08:34:50.084Z,99980.48
2022-11-19T08:37:18.178Z,99978.37
2022-11-19T08:39:45.861Z,99971.27
2022-11-19T08:42:32.522Z,99973.95
2022-11-19T08:45:01.031Z,99971.16
2022-11-19T08:47:28.730Z,99973.84
2022-11-19T08:49:56.699Z,99972.90
2022-11-19T08:52:25.449Z,99976.44
2022-11-19T08:54:53.568Z,99982.21
2022-11-19T08:57:21.428Z,99982.31
2022-11-19T08:59:49.413Z,99986.73
2022-11-19T09:02:17.127Z,99988.33
2022-11-19T09:04:45.008Z,99992.23
2022-11-19T09:07:13.441Z,99994.04
2022-11-19T09:09:41.981Z,99997.77
2022-11-19T09:12:10.051Z,100001.66
2022-11-19T09:14:38.102Z,100005.20
2022-11-19T09:17:05.844Z,100009.99
2022-11-19T09:19:33.773Z,100005.99
2022-11-19T09:22:01.729Z,100004.02
2022-11-19T09:24:29.519Z,100001.59
2022-11-19T09:27:02.105Z,100001.02
2022-11-19T09:29:30.591Z,99998.02
2022-11-19T09:31:59.091Z,99994.33
2022-11-19T09:34:27.827Z,99990.46
2022-11-19T09:36:56.086Z,99993.52
2022-11-19T09:39:24.229Z,99991.23
2022-11-19T09:42:04.263Z,99993.08
2022-11-19T09:44:51.379Z,99997.98
2022-11-19T09:47:39.380Z,100001.16
2022-11-19T09:50:20.028Z,99998.71
2022-11-19T09:52:56.724Z,99997.66
2022-11-19T09:55:34.640Z,99998.64
2022-11-19T09:58:06.000Z,99994.55
2022-11-19T10:00:34.152Z,99995.48
2022-11-19T10:03:11.645Z,99994.73
2022-11-19T10:06:01.444Z,99998.38
2022-11-19T10:08:44.456Z,100003.02
2022-11-19T10:11:30.260Z,99998.02
2022-11-19T10:14:04.249Z,100000.17
2022-11-19T10:16:42.455Z,99998.69
2022-11-19T10:19:45.746Z,99998.55
2022-11-19T10:22:23.601Z,99996.40
2022-11-19T10:24:57.102Z,99994.52
2022-11-19T10:27:42.497Z,99994.69
2022-11-19T10:30:17.155Z,99991.63
2022-11-19T10:33:01.877Z,99987.75
2022-11-19T10:35:36.289Z,99994.53
2022-11-19T10:38:13.753Z,99988.42
2022-11-19T10:40:45.991Z,99981.71
2022-11-19T10:43:25.742Z,99982.61
2022-11-19T10:45:55.118Z,99975.39
2022-11-19T10:48:25.316Z,99971.29
2022-11-19T10:50:53.022Z,99965.29
2022-11-19T10:53:27.398Z,99969.41
2022-11-19T10:56:00.083Z,99970.75
2022-11-19T10:58:38.255Z,99968.89
2022-11-19T11:01:16.367Z,99967.48
2022-11-19T11:03:49.393Z,99968.54
2022-11-19T11:06:17.300Z,99966.02
2022-11-19T11:08:53.258Z,99960.59
2022-11-19T11:11:50.592Z,99966.70
2022-11-19T11:14:39.624Z,99961.49
2022-11-19T11:17:20.920Z,99964.12
2022-11-19T11:20:04.596Z,99957.92
2022-11-19T11:22:33.872Z,99956.96
2022-11-19T11:25:07.089Z,99944.07
2022-11-19T11:27:35.899Z,99947.34
2022-11-19T11:30:12.641Z,99944.16
2022-11-19T11:32:41.978Z,99946.83
2022-11-19T11:35:29.737Z,99945.16
2022-11-19T11:37:59.084Z,99943.09
2022-11-19T11:40:26.989Z,99944.96
2022-11-19T11:42:55.229Z,99941.71
2022-11-19T11:45:32.479Z,99937.45
2022-11-19T11:48:16.710Z,99937.52
2022-11-19T11:50:46.109Z,99937.86
2022-11-19T11:53:16.356Z,99939.97
2022-11-19T11:55:44.066Z,99939.80
2022-11-19T11:58:26.787Z,99941.10
2022-11-19T12:01:15.256Z,99936.82
2022-11-19T12:03:59.765Z,99934.13
2022-11-19T12:06:45.243Z,99933.13
2022-11-19T12:09:26.887Z,99931.80
2022-11-19T12:12:23.683Z,99934.13
2022-11-19T12:15:02.657Z,99936.15
2022-11-19T12:17:45.313Z,99933.02
2022-11-19T12:20:20.895Z,99926.91
2022-11-19T12:23:07.275Z,99927.42
2022-11-19T12:25:59.404Z,99927.25
2022-11-19T12:28:44.788Z,99928.24
2022-11-19T12:31:41.250Z,99924.98
2022-11-19T12:34:18.091Z,99925.48
2022-11-19T12:37:30.356Z,99922.68
2022-11-19T12:40:12.972Z,99928.02
2022-11-19T12:42:57.978Z,99929.59
2022-11-19T12:45:39.517Z,99925.73
2022-11-19T12:48:43.993Z,99924.08
2022-11-19T12:51:12.860Z,99917.45
2022-11-19T12:53:59.472Z,99915.30
2022-11-19T12:56:46.693Z,99922.36
2022-11-19T12:59:51.394Z,99917.10
2022-11-19T13:02:59.060Z,99911.00
2022-11-19T13:05:42.880Z,99913.23
2022-11-19T13:08:19.974Z,99915.39
2022-11-19T13:10:59.837Z,99917.13
2022-11-19T13:13:30.463Z,99909.91
2022-11-19T13:16:09.429Z,99904.48
2022-11-19T13:18:41.682Z,99908.94
2022-11-19T13:21:25.504Z,99907.11
2022-11-19T13:23:55.519Z,99908.89
2022-11-19T13:26:29.436Z,99901.44
2022-11-19T13:29:24.228Z,99900.79
2022-11-19T13:31:59.064Z,99903.48
2022-11-19T13:34:45.316Z,99902.83
2022-11-19T13:37:32.369Z,99897.81
2022-11-19T13:40:19.139Z,99892.83
2022-11-19T13:43:33.393Z,99896.95
2022-11-19T13:46:10.369Z,99898.85
2022-11-19T13:48:42.498Z,99906.32
2022-11-19T13:51:33.983Z,99901.74
2022-11-19T13:54:04.896Z,99903.00
2022-11-19T13:56:43.236Z,99899.80
2022-11-19T13:59:46.578Z,99899.79
2022-11-19T14:02:44.235Z,99895.02
2022-11-19T14:05:27.294Z,99891.96
2022-11-19T14:08:05.241Z,99890.66
2022-11-19T14:10:57.509Z,99890.97
2022-11-19T14:13:42.044Z,99890.60
2022-11-19T14:16:39.616Z,99895.37
2022-11-19T14:19:32.584Z,99891.96
2022-11-19T14:22:20.349Z,99890.23
2022-11-19T14:25:06.814Z,99893.63
2022-11-19T14:27:35.684Z,99894.19
2022-11-19T14:30:09.707Z,99897.12
2022-11-19T14:32:46.419Z,99899.61
2022-11-19T14:35:20.187Z,99900.02
2022-11-19T14:37:52.102Z,99896.00
2022-11-19T14:40:24.250Z,99898.18
2022-11-19T14:43:20.120Z,99900.79
2022-11-19T14:46:03.387Z,99899.39
2022-11-19T14:48:49.161Z,99902.62
2022-11-19T14:51:26.981Z,99896.80
2022-11-19T14:54:03.439Z,99895.04
2022-11-19T14:56:33.589Z,99898.20
2022-11-19T14:59:20.069Z,99896.78
2022-11-19T15:01:58.796Z,99892.30
2022-11-19T15:04:58.251Z,99888.34
2022-11-19T15:07:35.048Z,99885.50
2022-11-19T15:10:09.158Z,99884.23
2022-11-19T15:12:39.686Z,99891.92
2022-11-19T15:15:19.938Z,99890.48
2022-11-19T15:17:57.727Z,99891.59
2022-11-19T15:21:05.408Z,99893.50
2022-11-19T15:23:54.731Z,99892.69
2022-11-19T15:26:34.896Z,99898.24
2022-11-19T15:29:27.329Z,99898.59
2022-11-19T15:32:14.227Z,99902.91
2022-11-19T15:35:11.564Z,99903.08
2022-11-19T15:37:48.527Z,99902.88
2022-11-19T15:40:19.564Z,99901.48
2022-11-19T15:43:15.421Z,99898.16
2022-11-19T15:45:48.921Z,99893.65
2022-11-19T15:48:23.604Z,99894.95
2022-11-19T15:50:51.936Z,99893.34
2022-11-19T15:53:24.339Z,99890.34
2022-11-19T15:56:18.258Z,99892.98
2022-11-19T15:58:47.328Z,99887.77
2022-11-19T16:01:17.997Z,99889.55
2022-11-19T16:03:46.765Z,99893.26
2022-11-19T16:06:20.627Z,99895.38
2022-11-19T16:08:53.411Z,99897.48
2022-11-19T16:11:43.980Z,99895.48
2022-11-19T16:14:39.054Z,99890.21
2022-11-19T16:17:39.728Z,99894.23
2022-11-19T16:20:09.690Z,99885.87
2022-11-19T16:22:42.362Z,99889.00
2022-11-19T16:25:34.945Z,99885.42
2022-11-19T16:28:11.609Z,99886.48
2022-11-19T16:30:49.604Z,99889.42
2022-11-19T16:33:24.403Z,99892.04
2022-11-19T16:36:10.054Z,99888.63
2022-11-19T16:38:40.892Z,99889.17
2022-11-19T16:41:30.718Z,99889.38
2022-11-19T16:43:59.261Z,99889.03
2022-11-19T16:46:29.721Z,99889.04
2022-11-19T16:48:59.259Z,99890.11
2022-11-19T16:51:49.460Z,99889.27
2022-11-19T16:54:42.885Z,99893.94
2022-11-19T16:57:12.435Z,99900.30
2022-11-19T16:59:40.596Z,99897.21
2022-11-19T17:02:17.168Z,99895.33
2022-11-19T17:04:49.829Z,99897.41
2022-11-19T17:07:26.572Z,99896.21
2022-11-19T17:10:30.558Z,99898.63
2022-11-19T17:13:22.346Z,99896.05
2022-11-19T17:15:51.659Z,99894.66
2022-11-19T17:18:20.784Z,99894.48
2022-11-19T17:21:27.924Z,99895.15
2022-11-19T17:23:56.194Z,99895.67
2022-11-19T17:26:27.404Z,99901.34
2022-11-19T17:29:07.234Z,99898.94
2022-11-19T17:31:35.050Z,99904.10
2022-11-19T17:34:14.146Z,99903.08
2022-11-19T17:36:43.773Z,99901.52
2022-11-19T17:39:12.294Z,99903.42
2022-11-19T17:41:59.413Z,99904.63
2022-11-19T17:44:35.838Z,99902.05
2022-11-19T17:47:22.392Z,99907.73
2022-11-19T17:49:51.934Z,99912.02
2022-11-19T17:52:25.644Z,99909.14
2022-11-19T17:54:56.942Z,99914.63
2022-11-19T17:57:24.746Z,99917.73
2022-11-19T17:59:52.739Z,99916.71
2022-11-19T18:02:20.979Z,99918.45
2022-11-19T18:04:49.306Z,99913.13
2022-11-19T18:07:17.314Z,99912.77
2022-11-19T18:09:45.254Z,99916.05
2022-11-19T18:12:16.052Z,99917.12
2022-11-19T18:14:46.574Z,99920.91
2022-11-19T18:17:15.161Z,99927.27
2022-11-19T18:19:43.146Z,99927.31
2022-11-19T18:22:18.167Z,99931.80
2022-11-19T18:24:47.650Z,99927.86
2022-11-19T18:27:16.430Z,99927.88
2022-11-19T18:29:44.780Z,99932.17
2022-11-19T18:32:15.304Z,99932.89
2022-11-19T18:34:44.859Z,99936.52
2022-11-19T18:37:13.418Z,99932.76
2022-11-19T18:39:41.374Z,99934.66
2022-11-19T18:42:12.407Z,99938.45
2022-11-19T18:44:43.600Z,99939.48
2022-11-19T18:47:14.159Z,99941.88
2022-11-19T18:49:42.096Z,99945.65
2022-11-19T18:52:15.202Z,99944.45
2022-11-19T18:54:43.577Z,99945.15
2022-11-19T18:57:12.687Z,99945.67
2022-11-19T18:59:41.472Z,99947.40
2022-11-19T19:02:10.400Z,99949.48
2022-11-19T19:04:38.321Z,99951.20
2022-11-19T19:07:06.198Z,99950.69
2022-11-19T19:09:37.022Z,99957.05
2022-11-19T19:12:17.714Z,99962.20
2022-11-19T19:14:47.726Z,99964.27
2022-11-19T19:17:16.390Z,99964.11
2022-11-19T19:19:44.957Z,99963.58
2022-11-19T19:22:12.892Z,99965.82
2022-11-19T19:24:40.627Z,99962.23
2022-11-19T19:27:09.808Z,99963.26
2022-11-19T19:29:39.626Z,99961.70
2022-11-19T19:32:07.569Z,99961.88
2022-11-19T19:34:36.567Z,99957.45
2022-11-19T19:37:05.290Z,99956.77
2022-11-19T19:39:33.185Z,99960.04
2022-11-19T19:42:01.072Z,99962.09
2022-11-19T19:44:28.937Z,99956.77
2022-11-19T19:46:56.699Z,99956.77
2022-11-19T19:49:24.882Z,99948.69
2022-11-19T19:51:52.970Z,99952.30
2022-11-19T19:54:20.874Z,99953.16
2022-11-19T19:56:48.822Z,99955.91
2022-11-19T19:59:16.855Z,99953.70
2022-11-19T20:01:47.444Z,99943.58
2022-11-19T20:04:15.839Z,99945.97
2022-11-19T20:06:46.692Z,99948.72
2022-11-19T20:09:15.137Z,99952.67
2022-11-19T20:11:42.902Z,99953.19
2022-11-19T20:14:11.190Z,99951.48
2022-11-19T20:16:40.383Z,99949.41
2022-11-19T20:19:12.218Z,99950.61
2022-11-19T20:21:40.397Z,99953.36
2022-11-19T20:24:12.150Z,99955.92
2022-11-19T20:26:41.347Z,99956.45
2022-11-19T20:29:14.195Z,99956.81
2022-11-19T20:31:46.932Z,99963.48
2022-11-19T20:34:16.247Z,99966.23
2022-11-19T20:36:44.693Z,99965.39
2022-11-19T20:39:12.952Z,99959.91
2022-11-19T20:41:59.726Z,99957.67
2022-11-19T20:44:27.558Z,99954.61
2022-11-19T20:46:57.726Z,99960.09
2022-11-19T20:49:28.500Z,99957.87
2022-11-19T20:51:57.252Z,99958.05
2022-11-19T20:54:25.867Z,99949.14
2022-11-19T20:59:31.234Z,99946.21
2022-11-19T21:01:59.241Z,99943.83
2022-11-19T21:04:36.288Z,99944.16
2022-11-19T21:07:05.655Z,99937.66
2022-11-19T21:09:33.631Z,99935.77
2022-11-19T21:12:01.470Z,99936.29
2022-11-19T21:14:29.419Z,99939.89
2022-11-19T21:16:57.509Z,99940.58
2022-11-19T21:19:25.222Z,99941.95
2022-11-19T21:21:53.163Z,99946.23
2022-11-19T21:24:20.881Z,99946.58
2022-11-19T21:26:48.778Z,99950.17
2022-11-19T21:29:17.080Z,99951.73
2022-11-19T21:31:47.189Z,99949.33
2022-11-19T21:34:20.545Z,99945.40
2022-11-19T21:36:49.408Z,99945.90
2022-11-19T21:39:19.277Z,99948.48
2022-11-19T21:41:47.235Z,99949.52
2022-11-19T21:44:19.942Z,99950.21
2022-11-19T21:46:49.797Z,99953.30
2022-11-19T21:49:18.614Z,99953.32
2022-11-19T21:51:46.695Z,99948.88
2022-11-19T21:54:14.553Z,99947.84
2022-11-19T21:56:42.412Z,99948.89
2022-11-19T21:59:10.166Z,99947.69
2022-11-19T22:01:38.039Z,99943.23
2022-11-19T22:04:06.026Z,99945.80
2022-11-19T22:06:34.180Z,99948.69
2022-11-19T22:09:02.032Z,99944.73
2022-11-19T22:11:30.299Z,99943.39
2022-11-19T22:14:03.083Z,99948.71
2022-11-19T22:16:33.026Z,99949.73
2022-11-19T22:19:01.428Z,99948.73
2022-11-19T22:21:29.508Z,99946.00
2022-11-19T22:26:39.918Z,99942.08
2022-11-19T22:29:07.817Z,99942.77
2022-11-19T22:31:35.670Z,99943.96
2022-11-19T22:34:03.500Z,99943.61
2022-11-19T22:36:33.689Z,99944.81
2022-11-19T22:39:01.550Z,99947.91
2022-11-19T22:41:29.469Z,99952.02
2022-11-19T22:43:58.797Z,99952.89
2022-11-19T22:46:26.816Z,99950.49
2022-11-19T22:48:54.530Z,99953.92
2022-11-19T22:51:24.618Z,99953.92
2022-11-19T22:53:53.914Z,99950.16
2022-11-19T22:56:29.734Z,99949.48
2022-11-19T22:58:58.062Z,99945.89
2022-11-19T23:01:28.809Z,99947.08
2022-11-19T23:03:58.437Z,99946.74
2022-11-19T23:06:26.576Z,99942.98
2022-11-19T23:08:54.829Z,99941.79
2022-11-19T23:11:41.922Z,99938.18
2022-11-19T23:14:13.184Z,99939.55
2022-11-19T23:16:41.553Z,99943.48
2022-11-19T23:19:10.864Z,99939.73
2022-11-19T23:21:39.289Z,99945.55
2022-11-19T23:24:08.148Z,99946.77
2022-11-19T23:26:36.131Z,99943.86
2022-11-19T23:29:04.321Z,99944.19
2022-11-19T23:31:34.224Z,99941.28
2022-11-19T23:34:02.103Z,99935.63
2022-11-19T23:36:33.068Z,99933.06
2022-11-19T23:39:01.477Z,99927.77
2022-11-19T23:41:32.792Z,99930.66
2022-11-19T23:44:01.507Z,99928.27
2022-11-19T23:46:33.631Z,99925.52
2022-11-19T23:49:02.169Z,99928.94
2022-11-19T23:51:33.394Z,99922.45
2022-11-19T23:54:01.975Z,99923.13
2022-11-19T23:56:32.616Z,99926.90
2022-11-19T23:59:01.864Z,99923.48
